Time;durP1;ratioP1;P1;durP2;ratioP2;P2;SDS_P1;SDS_P2;PMS_P1;PMS_P2;Temp;Humidity;BMP_temperature;BMP_pressure;BME280_temperature;BME280_humidity;BME280_pressure;Samples;Min_cycle;Max_cycle;Signal;HPM_P1;HPM_P2
2024/04/15 00:03:16;;;;;;;;;;;11.60;99.90;;;;;;6703211;88;20108;-77
2024/04/15 00:13:17;;;;;;;;;;;11.30;99.90;;;;;;6682185;88;20085;-77
2024/04/15 00:23:17;;;;;;;;;;;11.30;99.90;;;;;;6688109;88;20703;-78
2024/04/15 00:33:18;;;;;;;;;;;11.30;99.90;;;;;;6685710;88;20068;-78
2024/04/15 00:43:18;;;;;;;;;;;11.30;99.90;;;;;;6684262;89;20052;-78
2024/04/15 00:53:21;;;;;;;;;;;11.50;99.90;;;;;;6683584;89;20090;-77
2024/04/15 01:03:22;;;;;;;;;;;11.50;99.90;;;;;;6710632;88;20052;-79
2024/04/15 01:13:22;;;;;;;;;;;11.50;99.90;;;;;;6712828;88;20126;-78
2024/04/15 01:23:23;;;;;;;;;;;11.40;99.90;;;;;;6697896;88;20540;-78
2024/04/15 01:33:24;;;;;;;;;;;11.40;99.90;;;;;;6681996;88;20080;-78
2024/04/15 01:43:24;;;;;;;;;;;11.30;99.90;;;;;;6681486;88;20071;-78
2024/04/15 01:53:24;;;;;;;;;;;11.20;99.90;;;;;;6681706;89;20508;-78
2024/04/15 02:03:25;;;;;;;;;;;11.20;99.90;;;;;;6683364;89;20056;-78
2024/04/15 02:13:26;;;;;;;;;;;11.30;99.90;;;;;;6690565;88;20101;-78
2024/04/15 02:23:26;;;;;;;;;;;11.00;99.90;;;;;;6703012;88;20115;-77
2024/04/15 02:33:26;;;;;;;;;;;10.90;99.90;;;;;;6677925;88;20076;-77
2024/04/15 02:43:27;;;;;;;;;;;10.70;99.90;;;;;;6691302;88;20734;-77
2024/04/15 02:53:28;;;;;;;;;;;10.50;99.90;;;;;;6686214;89;20185;-77
2024/04/15 03:03:28;;;;;;;;;;;10.30;99.90;;;;;;6688468;88;20061;-78
2024/04/15 03:13:29;;;;;;;;;;;10.10;99.90;;;;;;6698217;88;20057;-78
2024/04/15 03:34:31;;;;;;;;;;;10.10;99.90;;;;;;6684852;88;20076;-81
2024/04/15 03:44:31;;;;;;;;;;;9.90;99.90;;;;;;6703062;89;20052;-79
2024/04/15 03:54:33;;;;;;;;;;;9.80;99.90;;;;;;6692650;89;20081;-80
2024/04/15 04:04:33;;;;;;;;;;;9.60;99.90;;;;;;6690412;87;20056;-82
2024/04/15 04:14:34;;;;;;;;;;;9.50;99.90;;;;;;6694052;89;20485;-80
2024/04/15 04:24:34;;;;;;;;;;;9.40;99.90;;;;;;6699834;88;20073;-80
2024/04/15 04:34:35;;;;;;;;;;;9.40;99.90;;;;;;6698597;88;20078;-80
2024/04/15 04:44:35;;;;;;;;;;;9.30;99.90;;;;;;6687504;89;20512;-81
2024/04/15 04:54:36;;;;;;;;;;;9.30;99.90;;;;;;6684407;88;20087;-80
2024/04/15 05:04:36;;;;;;;;;;;9.20;99.90;;;;;;6687099;88;20072;-80
2024/04/15 05:14:36;;;;;;;;;;;9.10;99.90;;;;;;6682587;88;20140;-81
2024/04/15 05:24:37;;;;;;;;;;;8.90;99.90;;;;;;6685354;88;20118;-80
2024/04/15 05:34:38;;;;;;;;;;;9.00;99.90;;;;;;6690300;87;20207;-81
2024/04/15 05:44:38;;;;;;;;;;;9.00;99.90;;;;;;6700563;87;20099;-79
2024/04/15 05:54:39;;;;;;;;;;;9.20;99.90;;;;;;6703091;88;20060;-81
2024/04/15 06:04:39;;;;;;;;;;;9.40;99.90;;;;;;6725357;88;20061;-79
2024/04/15 06:14:40;;;;;;;;;;;9.70;99.90;;;;;;6689231;88;20056;-79
2024/04/15 06:24:40;;;;;;;;;;;10.00;99.90;;;;;;6685856;89;20074;-80
2024/04/15 06:34:41;;;;;;;;;;;10.30;99.90;;;;;;6682156;89;20108;-80
2024/04/15 06:44:41;;;;;;;;;;;10.90;99.90;;;;;;6701379;88;20075;-80
2024/04/15 06:54:42;;;;;;;;;;;11.00;99.90;;;;;;6696116;88;20509;-79
2024/04/15 07:04:43;;;;;;;;;;;10.80;99.90;;;;;;6686519;88;20095;-81
2024/04/15 07:14:44;;;;;;;;;;;10.60;99.90;;;;;;6700060;88;20025;-79
2024/04/15 07:24:45;;;;;;;;;;;10.80;99.90;;;;;;6687152;88;20082;-79
2024/04/15 07:34:45;;;;;;;;;;;11.10;99.90;;;;;;6686847;89;20088;-80
2024/04/15 07:44:46;;;;;;;;;;;11.00;99.90;;;;;;6695933;88;20070;-79
2024/04/15 07:54:47;;;;;;;;;;;11.50;99.90;;;;;;6681567;88;20111;-80
2024/04/15 08:04:47;;;;;;;;;;;12.50;99.90;;;;;;6688461;88;20089;-80
2024/04/15 08:14:48;;;;;;;;;;;13.50;99.90;;;;;;6680270;89;20079;-80
2024/04/15 08:24:48;;;;;;;;;;;13.50;99.90;;;;;;6688173;89;20077;-79
2024/04/15 08:34:49;;;;;;;;;;;14.00;99.90;;;;;;6694397;87;20087;-79
2024/04/15 08:44:49;;;;;;;;;;;13.70;99.90;;;;;;6682145;89;20069;-80
2024/04/15 08:54:50;;;;;;;;;;;13.20;99.90;;;;;;6692958;88;20171;-80
2024/04/15 09:04:50;;;;;;;;;;;13.00;99.90;;;;;;6688103;88;20056;-79
2024/04/15 09:14:51;;;;;;;;;;;13.70;99.90;;;;;;6682652;89;20062;-80
2024/04/15 09:24:51;;;;;;;;;;;13.70;99.90;;;;;;6680280;88;20511;-79
2024/04/15 09:34:53;;;;;;;;;;;14.70;98.70;;;;;;6701161;88;20490;-78
2024/04/15 09:44:54;;;;;;;;;;;15.30;98.20;;;;;;6681968;88;20062;-78
2024/04/15 09:54:59;;;;;;;;;;;15.00;97.20;;;;;;6678088;88;20071;-78
2024/04/15 10:05:02;;;;;;;;;;;15.30;96.60;;;;;;6681815;88;20214;-78
2024/04/15 10:15:03;;;;;;;;;;;15.70;96.20;;;;;;6679805;89;20228;-78
2024/04/15 10:25:05;;;;;;;;;;;17.50;94.10;;;;;;6679682;88;20060;-78
2024/04/15 10:35:18;;;;;;;;;;;16.90;93.50;;;;;;6682084;87;20607;-79
2024/04/15 10:45:20;;;;;;;;;;;16.70;93.60;;;;;;6677658;89;20076;-79
2024/04/15 10:55:20;;;;;;;;;;;16.50;93.70;;;;;;6695691;88;20072;-79
2024/04/15 11:05:22;;;;;;;;;;;16.90;93.40;;;;;;6681648;88;20185;-79
2024/04/15 11:15:22;;;;;;;;;;;17.00;92.50;;;;;;6676744;89;20094;-78
2024/04/15 11:25:23;;;;;;;;;;;16.40;93.50;;;;;;6678892;87;20053;-79
2024/04/15 11:35:24;;;;;;;;;;;16.80;92.10;;;;;;6694039;88;20125;-79
2024/04/15 11:45:24;;;;;;;;;;;16.30;92.30;;;;;;6688428;88;20458;-78
2024/04/15 11:55:25;;;;;;;;;;;16.40;91.80;;;;;;6697068;88;20599;-78
2024/04/15 12:05:26;;;;;;;;;;;16.20;91.30;;;;;;6693578;88;20082;-78
2024/04/15 12:15:26;;;;;;;;;;;15.80;91.20;;;;;;6679476;88;20595;-78
2024/04/15 12:25:27;;;;;;;;;;;15.70;91.90;;;;;;6683142;88;20064;-78
2024/04/15 12:35:27;;;;;;;;;;;15.50;91.30;;;;;;6679523;88;20129;-77
2024/04/15 12:45:28;;;;;;;;;;;17.00;91.00;;;;;;6681150;88;20080;-78
2024/04/15 12:55:28;;;;;;;;;;;17.10;90.50;;;;;;6687821;88;20088;-77
2024/04/15 13:05:29;;;;;;;;;;;16.30;90.40;;;;;;6681529;88;20081;-78
2024/04/15 13:15:29;;;;;;;;;;;16.70;90.40;;;;;;6685249;88;20053;-78
2024/04/15 13:25:30;;;;;;;;;;;15.90;90.60;;;;;;6681004;88;20162;-78
2024/04/15 13:35:30;;;;;;;;;;;15.80;91.10;;;;;;6681735;88;20072;-77
2024/04/15 13:45:31;;;;;;;;;;;16.10;91.50;;;;;;6675632;88;20139;-78
2024/04/15 13:55:31;;;;;;;;;;;17.40;90.90;;;;;;6677357;88;20056;-77
2024/04/15 14:05:32;;;;;;;;;;;16.00;91.40;;;;;;6680573;88;20163;-77
2024/04/15 14:15:32;;;;;;;;;;;15.60;92.50;;;;;;6676110;89;20070;-77
2024/04/15 14:25:33;;;;;;;;;;;14.70;94.60;;;;;;6679900;89;20068;-75
2024/04/15 14:35:33;;;;;;;;;;;14.50;95.70;;;;;;6672071;88;20474;-76
2024/04/15 14:45:34;;;;;;;;;;;15.20;95.90;;;;;;6686474;88;20112;-77
2024/04/15 14:55:35;;;;;;;;;;;15.00;96.40;;;;;;6681117;88;20089;-76
2024/04/15 15:05:35;;;;;;;;;;;15.00;96.10;;;;;;6679000;88;20057;-76
2024/04/15 15:15:36;;;;;;;;;;;14.50;96.50;;;;;;6674339;89;20093;-77
2024/04/15 15:25:36;;;;;;;;;;;14.00;97.90;;;;;;6686461;88;20068;-80
2024/04/15 15:35:37;;;;;;;;;;;8.60;99.90;;;;;;6701171;88;20498;-77
2024/04/15 15:45:39;;;;;;;;;;;6.90;99.90;;;;;;6693271;89;20634;-78
2024/04/15 15:55:39;;;;;;;;;;;6.50;99.90;;;;;;6696045;89;20064;-77
2024/04/15 16:05:40;;;;;;;;;;;5.60;99.90;;;;;;6692898;89;20542;-78
2024/04/15 16:15:40;;;;;;;;;;;5.30;99.90;;;;;;6690865;89;20052;-80
2024/04/15 16:25:41;;;;;;;;;;;5.10;99.90;;;;;;6703792;87;20126;-80
2024/04/15 16:35:41;;;;;;;;;;;5.90;99.90;;;;;;6687709;88;20048;-78
2024/04/15 16:45:42;;;;;;;;;;;5.90;99.90;;;;;;6701549;88;20079;-80
2024/04/15 16:55:42;;;;;;;;;;;6.30;99.90;;;;;;6699550;88;20136;-79
2024/04/15 17:05:44;;;;;;;;;;;7.00;99.90;;;;;;6691114;88;20077;-80
2024/04/15 17:15:44;;;;;;;;;;;6.70;99.90;;;;;;6702717;88;20064;-80
2024/04/15 17:25:44;;;;;;;;;;;6.50;99.90;;;;;;6706342;88;20055;-82
2024/04/15 17:35:45;;;;;;;;;;;6.50;99.90;;;;;;6694754;87;20069;-81
2024/04/15 17:45:45;;;;;;;;;;;6.40;99.90;;;;;;6696843;87;20054;-84
2024/04/15 17:55:46;;;;;;;;;;;5.40;99.90;;;;;;6695196;88;20082;-82
2024/04/15 18:05:46;;;;;;;;;;;5.30;99.90;;;;;;6685983;89;20092;-80
2024/04/15 18:15:47;;;;;;;;;;;5.50;99.90;;;;;;6678138;89;20081;-79
2024/04/15 18:25:47;;;;;;;;;;;5.20;99.90;;;;;;6682206;89;20100;-79
2024/04/15 18:35:48;;;;;;;;;;;5.20;99.90;;;;;;6692517;88;20359;-82
2024/04/15 18:45:49;;;;;;;;;;;5.20;99.90;;;;;;6691542;89;20040;-80
2024/04/15 18:55:49;;;;;;;;;;;5.20;99.90;;;;;;6687137;88;20036;-80
2024/04/15 19:05:50;;;;;;;;;;;5.20;99.90;;;;;;6694328;87;20046;-82
2024/04/15 19:15:51;;;;;;;;;;;5.20;99.90;;;;;;6684117;89;20082;-76
2024/04/15 19:25:51;;;;;;;;;;;5.20;99.90;;;;;;6686496;88;20326;-76
2024/04/15 19:35:52;;;;;;;;;;;5.10;99.90;;;;;;6673116;88;20213;-76
2024/04/15 19:45:52;;;;;;;;;;;5.30;99.90;;;;;;6670211;88;20053;-76
2024/04/15 19:55:52;;;;;;;;;;;5.40;99.90;;;;;;6678157;88;20661;-76
2024/04/15 20:05:53;;;;;;;;;;;5.30;99.90;;;;;;6670347;88;20061;-77
2024/04/15 20:15:54;;;;;;;;;;;5.30;99.90;;;;;;6683876;88;20520;-78
2024/04/15 20:25:54;;;;;;;;;;;5.40;99.90;;;;;;6676624;88;20205;-77
2024/04/15 20:35:55;;;;;;;;;;;5.30;99.90;;;;;;6672651;88;20764;-77
2024/04/15 20:45:56;;;;;;;;;;;5.40;99.90;;;;;;6701818;88;20025;-77
2024/04/15 20:55:57;;;;;;;;;;;5.70;99.90;;;;;;6678904;88;20100;-77
2024/04/15 21:05:57;;;;;;;;;;;5.80;99.90;;;;;;6679386;88;20056;-75
2024/04/15 21:15:58;;;;;;;;;;;6.00;99.90;;;;;;6677139;88;20074;-76
2024/04/15 21:26:03;;;;;;;;;;;5.60;99.90;;;;;;6673305;88;20074;-77
2024/04/15 21:36:07;;;;;;;;;;;5.60;99.90;;;;;;6673287;88;20049;-77
2024/04/15 21:46:08;;;;;;;;;;;5.80;99.90;;;;;;6676624;89;20432;-76
2024/04/15 21:56:09;;;;;;;;;;;5.80;99.90;;;;;;6679966;88;20693;-76
2024/04/15 22:06:10;;;;;;;;;;;5.70;99.90;;;;;;6680256;88;20107;-77
2024/04/15 22:16:10;;;;;;;;;;;5.70;99.90;;;;;;6680389;88;20113;-76
2024/04/15 22:26:11;;;;;;;;;;;6.00;99.90;;;;;;6677501;88;20052;-76
2024/04/15 22:36:11;;;;;;;;;;;6.10;99.90;;;;;;6689805;88;20144;-77
2024/04/15 22:57:14;;;;;;;;;;;5.60;99.90;;;;;;6663192;89;20091;-76
2024/04/15 23:07:14;;;;;;;;;;;5.50;99.90;;;;;;6666389;88;20056;-77
2024/04/15 23:17:14;;;;;;;;;;;5.40;99.90;;;;;;6661721;88;20086;-76
2024/04/15 23:27:15;;;;;;;;;;;5.50;99.90;;;;;;6661691;88;20064;-77
2024/04/15 23:37:15;;;;;;;;;;;5.60;99.90;;;;;;6669821;88;20085;-76
2024/04/15 23:47:16;;;;;;;;;;;5.70;99.90;;;;;;6670370;88;20105;-76
2024/04/15 23:57:16;;;;;;;;;;;5.80;99.90;;;;;;6667784;88;20530;-77
